createdAt,value
2019-02-10T00:00:40.328Z,12.60
2019-02-10T00:03:08.810Z,16.20
2019-02-10T00:05:37.364Z,15.50
2019-02-10T00:08:05.830Z,19.00
2019-02-10T00:10:34.364Z,14.27
2019-02-10T00:13:22.574Z,17.33
2019-02-10T00:15:51.043Z,15.67
2019-02-10T00:18:19.963Z,21.53
2019-02-10T00:20:48.528Z,13.67
2019-02-10T00:23:16.975Z,9.17
2019-02-10T00:25:45.444Z,11.43
2019-02-10T00:28:13.955Z,6.20
2019-02-10T00:30:42.684Z,22.80
2019-02-10T00:33:11.145Z,12.70
2019-02-10T00:35:39.662Z,18.23
2019-02-10T00:38:08.124Z,19.63
2019-02-10T00:40:36.599Z,20.87
2019-02-10T00:43:05.098Z,15.30
2019-02-10T00:45:33.565Z,15.50
2019-02-10T00:48:02.032Z,13.87
2019-02-10T00:50:30.544Z,20.47
2019-02-10T00:52:59.021Z,16.63
2019-02-10T00:55:27.500Z,9.57
2019-02-10T00:57:55.977Z,15.90
2019-02-10T01:00:24.600Z,14.90
2019-02-10T01:02:53.052Z,13.93
2019-02-10T01:05:21.551Z,19.60
2019-02-10T01:07:50.003Z,11.67
2019-02-10T01:10:20.034Z,18.20
2019-02-10T01:12:48.533Z,15.03
2019-02-10T01:15:16.988Z,19.23
2019-02-10T01:17:45.460Z,17.10
2019-02-10T01:20:14.138Z,14.50
2019-02-10T01:22:42.604Z,15.03
2019-02-10T01:25:11.138Z,19.63
2019-02-10T01:27:39.677Z,17.93
2019-02-10T01:30:11.275Z,19.27
2019-02-10T01:32:39.960Z,18.17
2019-02-10T01:35:08.547Z,11.57
2019-02-10T01:37:37.021Z,15.73
2019-02-10T01:40:07.819Z,23.73
2019-02-10T01:42:36.298Z,9.07
2019-02-10T01:45:07.385Z,16.10
2019-02-10T01:47:35.856Z,16.60
2019-02-10T01:50:06.302Z,12.60
2019-02-10T01:52:34.839Z,11.07
2019-02-10T01:55:03.483Z,14.47
2019-02-10T01:57:31.975Z,14.93
2019-02-10T02:00:00.431Z,12.00
2019-02-10T02:02:28.890Z,16.30
2019-02-10T02:04:57.400Z,8.80
2019-02-10T02:07:25.925Z,7.13
2019-02-10T02:09:54.390Z,16.93
2019-02-10T02:12:22.901Z,15.30
2019-02-10T02:14:51.359Z,5.47
2019-02-10T02:17:19.817Z,10.83
2019-02-10T02:19:48.608Z,12.10
2019-02-10T02:22:17.681Z,17.60
2019-02-10T02:24:46.144Z,18.60
2019-02-10T02:27:14.643Z,17.60
2019-02-10T02:29:43.107Z,31.73
2019-02-10T02:32:11.561Z,9.93
2019-02-10T02:34:40.421Z,10.00
2019-02-10T02:37:08.885Z,18.73
2019-02-10T02:39:37.359Z,10.07
2019-02-10T02:42:05.835Z,12.90
2019-02-10T02:44:34.277Z,6.00
2019-02-10T02:47:02.804Z,8.43
2019-02-10T02:49:31.303Z,13.67
2019-02-10T02:51:59.771Z,6.40
2019-02-10T02:54:28.224Z,17.57
2019-02-10T02:56:56.722Z,13.30
2019-02-10T02:59:25.179Z,13.07
2019-02-10T03:01:53.665Z,14.80
2019-02-10T03:04:22.139Z,13.07
2019-02-10T03:06:50.616Z,13.63
2019-02-10T03:09:19.086Z,10.23
2019-02-10T03:11:47.583Z,16.80
2019-02-10T03:14:16.056Z,5.80
2019-02-10T03:16:44.498Z,19.00
2019-02-10T03:19:12.980Z,16.67
2019-02-10T03:21:41.432Z,15.60
2019-02-10T03:24:09.891Z,12.90
2019-02-10T03:26:38.398Z,13.67
2019-02-10T03:29:06.851Z,12.13
2019-02-10T03:31:35.311Z,14.87
2019-02-10T03:34:03.797Z,18.57
2019-02-10T03:36:33.342Z,16.77
2019-02-10T03:39:01.791Z,12.10
2019-02-10T03:41:30.330Z,13.90
2019-02-10T03:43:58.780Z,9.23
2019-02-10T03:46:27.252Z,16.87
2019-02-10T03:48:55.757Z,17.23
2019-02-10T03:51:24.236Z,11.00
2019-02-10T03:53:52.696Z,11.57
2019-02-10T03:56:21.202Z,23.27
2019-02-10T03:58:49.642Z,7.63
2019-02-10T04:01:18.095Z,7.33
2019-02-10T04:03:46.580Z,13.80
2019-02-10T04:06:15.027Z,19.70
2019-02-10T04:08:43.489Z,15.37
2019-02-10T04:11:13.541Z,11.30
2019-02-10T04:13:42.003Z,11.53
2019-02-10T04:16:10.463Z,12.93
2019-02-10T04:18:38.999Z,10.80
2019-02-10T04:21:07.447Z,14.80
2019-02-10T04:23:35.900Z,11.00
2019-02-10T04:26:04.373Z,8.57
2019-02-10T04:28:32.833Z,10.80
2019-02-10T04:31:01.294Z,14.47
2019-02-10T04:33:29.796Z,11.33
2019-02-10T04:35:58.253Z,8.40
2019-02-10T04:38:27.736Z,13.20
2019-02-10T04:40:56.217Z,7.73
2019-02-10T04:43:24.668Z,8.77
2019-02-10T04:45:53.122Z,9.70
2019-02-10T04:48:21.605Z,21.87
2019-02-10T04:50:50.087Z,14.50
2019-02-10T04:53:18.509Z,17.63
2019-02-10T04:55:50.174Z,11.07
2019-02-10T04:58:18.623Z,19.23
2019-02-10T05:00:47.081Z,8.33
2019-02-10T05:03:15.576Z,6.60
2019-02-10T05:05:44.036Z,5.37
2019-02-10T05:08:12.488Z,10.90
2019-02-10T05:10:40.978Z,9.43
2019-02-10T05:13:09.426Z,7.37
2019-02-10T05:15:37.879Z,15.57
2019-02-10T05:18:06.368Z,7.97
2019-02-10T05:20:34.818Z,7.70
2019-02-10T05:23:03.264Z,6.83
2019-02-10T05:25:31.759Z,11.07
2019-02-10T05:28:00.220Z,10.80
2019-02-10T05:30:28.693Z,13.27
2019-02-10T05:32:57.179Z,9.87
2019-02-10T05:35:25.639Z,8.80
2019-02-10T05:37:54.105Z,12.30
2019-02-10T05:40:23.615Z,16.73
2019-02-10T05:42:52.051Z,9.33
2019-02-10T05:45:20.549Z,10.23
2019-02-10T05:47:49.058Z,16.80
2019-02-10T05:50:17.500Z,3.57
2019-02-10T05:52:46.107Z,12.47
2019-02-10T05:55:14.610Z,12.07
2019-02-10T05:57:43.078Z,18.97
2019-02-10T06:00:11.600Z,10.07
2019-02-10T06:02:40.150Z,7.70
2019-02-10T06:05:14.342Z,11.03
2019-02-10T06:07:42.789Z,9.97
2019-02-10T06:10:11.361Z,10.80
2019-02-10T06:12:39.905Z,7.87
2019-02-10T06:15:09.580Z,7.67
2019-02-10T06:17:38.082Z,8.67
2019-02-10T06:20:09.080Z,11.50
2019-02-10T06:22:37.554Z,9.97
2019-02-10T06:25:08.641Z,13.23
2019-02-10T06:27:37.112Z,10.97
2019-02-10T06:30:10.373Z,11.87
2019-02-10T06:32:38.875Z,5.27
2019-02-10T06:35:08.776Z,18.50
2019-02-10T06:37:37.226Z,23.93
2019-02-10T06:40:07.858Z,14.13
2019-02-10T06:42:37.375Z,16.73
2019-02-10T06:45:08.776Z,16.67
2019-02-10T06:47:37.277Z,8.83
2019-02-10T06:50:07.056Z,4.80
2019-02-10T06:52:35.525Z,11.37
2019-02-10T06:55:05.380Z,5.37
2019-02-10T06:57:33.832Z,16.20
2019-02-10T07:00:06.358Z,10.43
2019-02-10T07:02:39.662Z,22.00
2019-02-10T07:05:10.658Z,16.40
2019-02-10T07:07:39.116Z,10.20
2019-02-10T07:10:08.269Z,18.33
2019-02-10T07:12:49.591Z,13.23
2019-02-10T07:15:54.849Z,14.50
2019-02-10T07:19:00.023Z,12.80
2019-02-10T07:21:33.489Z,19.37
2019-02-10T07:24:05.186Z,16.10
2019-02-10T07:26:54.129Z,6.70
2019-02-10T07:29:50.179Z,6.83
2019-02-10T07:32:21.896Z,8.00
2019-02-10T07:35:13.116Z,21.23
2019-02-10T07:37:47.647Z,8.67
2019-02-10T07:40:46.684Z,17.10
2019-02-10T07:43:21.698Z,11.87
2019-02-10T07:46:11.386Z,7.67
2019-02-10T07:48:48.691Z,18.70
2019-02-10T07:51:25.763Z,10.10
2019-02-10T07:53:59.988Z,15.17
2019-02-10T07:56:31.622Z,14.97
2019-02-10T07:59:12.361Z,11.20
2019-02-10T08:01:49.566Z,9.80
2019-02-10T08:04:33.220Z,17.17
2019-02-10T08:07:10.772Z,18.43
2019-02-10T08:09:57.380Z,20.83
2019-02-10T08:12:55.904Z,11.27
2019-02-10T08:15:39.358Z,14.83
2019-02-10T08:18:31.376Z,16.30
2019-02-10T08:21:18.210Z,20.83
2019-02-10T08:24:14.758Z,18.90
2019-02-10T08:26:49.346Z,6.57
2019-02-10T08:29:35.865Z,18.93
2019-02-10T08:32:25.572Z,13.60
2019-02-10T08:34:59.865Z,8.37
2019-02-10T08:37:57.528Z,8.53
2019-02-10T08:40:41.108Z,11.73
2019-02-10T08:43:21.613Z,19.30
2019-02-10T08:46:12.915Z,8.80
2019-02-10T08:49:02.747Z,16.00
2019-02-10T08:51:40.222Z,5.87
2019-02-10T08:54:09.442Z,13.80
2019-02-10T08:56:37.889Z,30.57
2019-02-10T08:59:06.338Z,10.30
2019-02-10T09:01:34.822Z,9.37
2019-02-10T09:04:03.280Z,10.33
2019-02-10T09:06:31.754Z,18.03
2019-02-10T09:09:02.574Z,22.60
2019-02-10T09:11:30.442Z,20.70
2019-02-10T09:13:58.899Z,23.37
2019-02-10T09:16:27.376Z,22.83
2019-02-10T09:19:09.981Z,22.07
2019-02-10T09:21:38.486Z,10.60
2019-02-10T09:24:07.003Z,17.33
2019-02-10T09:26:35.455Z,14.53
2019-02-10T09:29:03.956Z,18.33
2019-02-10T09:31:33.228Z,11.73
2019-02-10T09:34:01.712Z,18.27
2019-02-10T09:36:30.185Z,9.80
2019-02-10T09:38:58.630Z,11.13
2019-02-10T09:41:27.082Z,22.70
2019-02-10T09:43:55.577Z,16.80
2019-02-10T09:46:25.085Z,10.50
2019-02-10T09:48:53.528Z,8.90
2019-02-10T09:51:22.095Z,11.67
2019-02-10T09:53:50.560Z,6.83
2019-02-10T09:56:19.005Z,10.00
2019-02-10T09:58:47.489Z,9.33
2019-02-10T10:01:15.961Z,11.50
2019-02-10T10:03:44.408Z,8.90
2019-02-10T10:06:12.908Z,6.63
2019-02-10T10:08:41.383Z,10.37
2019-02-10T10:11:09.823Z,26.43
2019-02-10T10:13:38.324Z,24.73
2019-02-10T10:16:06.776Z,4.87
2019-02-10T10:18:35.247Z,17.03
2019-02-10T10:21:03.718Z,13.73
2019-02-10T10:23:32.177Z,9.47
2019-02-10T10:26:00.610Z,14.83
2019-02-10T10:28:29.128Z,8.90
2019-02-10T10:30:57.591Z,11.87
2019-02-10T10:33:26.048Z,10.00
2019-02-10T10:35:54.549Z,15.63
2019-02-10T10:38:22.992Z,11.10
2019-02-10T10:40:51.438Z,6.03
2019-02-10T10:43:19.926Z,19.47
2019-02-10T10:45:48.377Z,10.77
2019-02-10T10:48:17.021Z,6.33
2019-02-10T10:50:45.614Z,9.87
2019-02-10T10:53:14.059Z,10.50
2019-02-10T10:55:42.837Z,10.47
2019-02-10T10:58:11.250Z,10.10
2019-02-10T11:00:39.707Z,8.23
2019-02-10T11:03:08.159Z,9.40
2019-02-10T11:05:36.656Z,5.50
2019-02-10T11:08:05.107Z,4.70
2019-02-10T11:10:33.549Z,9.30
2019-02-10T11:13:02.022Z,9.80
2019-02-10T11:15:30.469Z,9.87
2019-02-10T11:17:58.917Z,7.10
2019-02-10T11:20:27.397Z,2.10
2019-02-10T11:22:55.892Z,10.20
2019-02-10T11:25:24.300Z,3.30
2019-02-10T11:27:52.800Z,3.90
2019-02-10T11:30:21.326Z,1.30
2019-02-10T11:32:49.770Z,9.63
2019-02-10T11:35:18.244Z,6.77
2019-02-10T11:37:46.694Z,2.80
2019-02-10T11:40:15.178Z,1.93
2019-02-10T11:42:43.668Z,9.40
2019-02-10T11:45:13.859Z,5.77
2019-02-10T11:47:42.326Z,7.13
2019-02-10T11:50:12.577Z,4.93
2019-02-10T11:52:41.030Z,6.60
2019-02-10T11:55:10.318Z,4.90
2019-02-10T11:57:38.810Z,3.63
2019-02-10T12:00:16.142Z,5.37
2019-02-10T12:02:44.619Z,5.23
2019-02-10T12:05:13.071Z,2.27
2019-02-10T12:07:41.523Z,4.40
2019-02-10T12:10:13.937Z,6.50
2019-02-10T12:12:42.359Z,2.27
2019-02-10T12:15:13.331Z,3.10
2019-02-10T12:17:41.807Z,1.73
2019-02-10T12:20:14.530Z,11.00
2019-02-10T12:22:49.901Z,3.00
2019-02-10T12:25:13.163Z,6.10
2019-02-10T12:27:41.612Z,7.67
2019-02-10T12:30:13.232Z,4.20
2019-02-10T12:32:45.017Z,5.17
2019-02-10T12:35:13.570Z,3.53
2019-02-10T12:37:42.009Z,3.70
2019-02-10T12:40:15.146Z,4.90
2019-02-10T12:42:43.630Z,5.10
2019-02-10T12:45:13.914Z,3.27
2019-02-10T12:47:42.486Z,2.97
2019-02-10T12:50:17.115Z,5.50
2019-02-10T12:52:45.687Z,7.43
2019-02-10T12:55:14.400Z,3.70
2019-02-10T12:57:42.832Z,6.60
2019-02-10T13:00:20.896Z,5.23
2019-02-10T13:02:52.278Z,5.80
2019-02-10T13:05:20.759Z,2.50
2019-02-10T13:07:49.240Z,12.43
2019-02-10T13:10:18.447Z,2.93
2019-02-10T13:12:48.025Z,9.40
2019-02-10T13:15:16.627Z,5.00
2019-02-10T13:17:45.074Z,12.20
2019-02-10T13:20:13.932Z,12.77
2019-02-10T13:22:42.526Z,6.00
2019-02-10T13:25:12.109Z,11.43
2019-02-10T13:27:40.663Z,4.03
2019-02-10T13:30:33.889Z,9.87
2019-02-10T13:33:02.446Z,11.30
2019-02-10T13:35:30.892Z,5.87
2019-02-10T13:37:59.368Z,3.33
2019-02-10T13:40:27.952Z,5.23
2019-02-10T13:42:56.413Z,4.60
2019-02-10T13:45:24.906Z,3.93
2019-02-10T13:47:53.396Z,6.53
2019-02-10T13:50:21.848Z,4.70
2019-02-10T13:52:50.343Z,5.40
2019-02-10T13:55:19.025Z,7.57
2019-02-10T13:57:47.493Z,4.83
2019-02-10T14:00:21.184Z,3.97
2019-02-10T14:02:49.641Z,6.00
2019-02-10T14:05:18.087Z,3.60
2019-02-10T14:07:46.640Z,8.63
2019-02-10T14:10:24.904Z,4.20
2019-02-10T14:12:46.537Z,5.73
2019-02-10T14:15:16.465Z,4.77
2019-02-10T14:17:44.940Z,3.43
2019-02-10T14:20:15.867Z,5.20
2019-02-10T14:22:44.352Z,2.60
2019-02-10T14:25:12.785Z,5.33
2019-02-10T14:27:41.256Z,5.03
2019-02-10T14:30:16.989Z,3.50
2019-02-10T14:32:45.698Z,3.73
2019-02-10T14:35:14.143Z,6.73
2019-02-10T14:37:42.618Z,2.70
2019-02-10T14:40:11.200Z,2.67
2019-02-10T14:42:39.659Z,8.93
2019-02-10T14:45:10.865Z,3.17
2019-02-10T14:47:39.364Z,10.17
2019-02-10T14:50:13.313Z,3.43
2019-02-10T14:52:41.846Z,3.23
2019-02-10T14:55:10.468Z,6.93
2019-02-10T14:57:39.300Z,7.10
2019-02-10T15:00:15.593Z,3.30
2019-02-10T15:02:44.412Z,3.77
2019-02-10T15:05:12.868Z,3.37
2019-02-10T15:07:41.510Z,3.17
2019-02-10T15:10:21.018Z,4.60
2019-02-10T15:12:49.512Z,3.60
2019-02-10T15:15:17.970Z,2.87
2019-02-10T15:17:46.454Z,4.90
2019-02-10T15:20:15.100Z,17.13
2019-02-10T15:22:43.550Z,8.13
2019-02-10T15:25:13.159Z,3.30
2019-02-10T15:27:41.662Z,4.53
2019-02-10T15:30:13.272Z,3.30
2019-02-10T15:32:41.756Z,4.70
2019-02-10T15:35:10.834Z,5.10
2019-02-10T15:37:39.302Z,2.90
2019-02-10T15:40:10.030Z,6.53
2019-02-10T15:42:38.511Z,3.30
2019-02-10T15:45:10.176Z,2.90
2019-02-10T15:47:38.654Z,2.53
2019-02-10T15:50:10.356Z,3.70
2019-02-10T15:52:38.826Z,8.30
2019-02-10T15:55:09.721Z,2.10
2019-02-10T15:57:38.208Z,3.20
2019-02-10T16:00:10.062Z,4.03
2019-02-10T16:02:38.497Z,3.07
2019-02-10T16:05:07.006Z,3.33
2019-02-10T16:07:35.447Z,3.00
2019-02-10T16:10:05.052Z,2.70
2019-02-10T16:12:33.547Z,3.10
2019-02-10T16:15:02.021Z,3.00
2019-02-10T16:17:30.473Z,3.33
2019-02-10T16:19:58.935Z,2.70
2019-02-10T16:22:27.377Z,2.67
2019-02-10T16:24:55.899Z,2.97
2019-02-10T16:27:24.483Z,3.40
2019-02-10T16:29:53.169Z,3.67
2019-02-10T16:32:21.656Z,2.17
2019-02-10T16:34:50.142Z,2.13
2019-02-10T16:37:18.597Z,4.83
2019-02-10T16:39:47.038Z,2.53
2019-02-10T16:42:15.536Z,3.07
2019-02-10T16:44:44.038Z,1.93
2019-02-10T16:47:12.480Z,2.13
2019-02-10T16:49:40.979Z,1.80
2019-02-10T16:52:09.434Z,2.30
2019-02-10T16:54:37.907Z,2.50
2019-02-10T16:57:06.392Z,1.97
2019-02-10T16:59:34.852Z,3.27
2019-02-10T17:02:03.465Z,2.40
2019-02-10T17:04:31.963Z,3.47
2019-02-10T17:07:00.429Z,3.50
2019-02-10T17:09:28.885Z,2.33
2019-02-10T17:11:57.374Z,3.17
2019-02-10T17:14:26.240Z,2.70
2019-02-10T17:16:54.778Z,2.13
2019-02-10T17:19:24.572Z,9.70
2019-02-10T17:21:53.046Z,3.27
2019-02-10T17:24:21.579Z,2.10
2019-02-10T17:26:50.058Z,3.93
2019-02-10T17:29:18.522Z,2.47
2019-02-10T17:31:46.977Z,2.30
2019-02-10T17:34:15.470Z,4.87
2019-02-10T17:36:43.966Z,4.00
2019-02-10T17:39:13.257Z,5.23
2019-02-10T17:41:41.816Z,8.93
2019-02-10T17:44:10.344Z,3.40
2019-02-10T17:46:38.780Z,4.07
2019-02-10T17:49:07.263Z,2.30
2019-02-10T17:51:35.725Z,2.13
2019-02-10T17:54:04.240Z,2.80
2019-02-10T17:56:32.713Z,3.00
2019-02-10T17:59:01.183Z,9.80
2019-02-10T18:01:29.721Z,4.00
2019-02-10T18:03:58.471Z,8.63
2019-02-10T18:06:26.928Z,3.13
2019-02-10T18:08:55.366Z,3.77
2019-02-10T18:11:30.959Z,3.33
2019-02-10T18:13:54.032Z,5.37
2019-02-10T18:16:39.353Z,7.00
2019-02-10T18:19:24.065Z,4.73
2019-02-10T18:21:54.191Z,4.23
2019-02-10T18:24:26.723Z,4.60
2019-02-10T18:26:56.799Z,4.60
2019-02-10T18:29:42.807Z,3.87
2019-02-10T18:32:24.617Z,5.20
2019-02-10T18:34:54.770Z,4.43
2019-02-10T18:37:30.541Z,6.70
2019-02-10T18:40:16.878Z,6.63
2019-02-10T18:42:46.955Z,4.10
2019-02-10T18:45:17.122Z,3.80
2019-02-10T18:47:49.729Z,3.37
2019-02-10T18:50:25.958Z,3.43
2019-02-10T18:52:56.076Z,3.23
2019-02-10T18:55:42.549Z,3.93
2019-02-10T18:58:15.710Z,3.63
2019-02-10T19:01:01.123Z,3.90
2019-02-10T19:03:31.265Z,3.63
2019-02-10T19:06:11.420Z,4.17
2019-02-10T19:08:41.543Z,3.47
2019-02-10T19:11:14.518Z,3.77
2019-02-10T19:14:00.589Z,4.13
2019-02-10T19:16:42.602Z,3.63
2019-02-10T19:19:18.638Z,2.97
2019-02-10T19:21:48.732Z,2.80
2019-02-10T19:24:21.824Z,3.00
2019-02-10T19:26:51.961Z,2.80
2019-02-10T19:29:38.289Z,3.47
2019-02-10T19:32:14.480Z,3.43
2019-02-10T19:34:44.540Z,3.67
2019-02-10T19:37:14.628Z,2.40
2019-02-10T19:39:44.752Z,3.60
2019-02-10T19:42:14.853Z,3.23
2019-02-10T19:44:57.225Z,2.50
2019-02-10T19:47:27.320Z,2.77
2019-02-10T19:50:09.472Z,3.23
2019-02-10T19:52:48.102Z,8.13
2019-02-10T19:55:20.754Z,3.63
2019-02-10T19:57:56.824Z,3.00
2019-02-10T20:00:43.419Z,2.30
2019-02-10T20:03:29.763Z,2.80
2019-02-10T20:06:02.830Z,3.20
2019-02-10T20:08:33.184Z,2.73
2019-02-10T20:11:09.444Z,2.43
2019-02-10T20:13:48.759Z,2.97
2019-02-10T20:16:18.878Z,2.87
2019-02-10T20:18:51.649Z,3.67
2019-02-10T20:21:21.721Z,4.00
2019-02-10T20:23:51.866Z,2.80
2019-02-10T20:26:31.092Z,2.97
2019-02-10T20:29:07.455Z,2.40
2019-02-10T20:31:43.495Z,3.10
2019-02-10T20:34:16.309Z,2.90
2019-02-10T20:36:49.372Z,3.73
2019-02-10T20:39:34.780Z,3.03
2019-02-10T20:42:12.153Z,2.60
2019-02-10T20:44:52.868Z,2.70
2019-02-10T20:47:22.974Z,3.00
2019-02-10T20:50:02.149Z,2.93
2019-02-10T20:52:46.188Z,2.90
2019-02-10T20:55:12.902Z,2.30
2019-02-10T20:57:42.986Z,4.17
2019-02-10T21:00:18.681Z,3.20
2019-02-10T21:02:54.521Z,3.87
2019-02-10T21:05:24.659Z,2.93
2019-02-10T21:07:54.746Z,3.83
2019-02-10T21:10:26.796Z,2.77
2019-02-10T21:12:56.917Z,4.33
2019-02-10T21:15:27.011Z,4.17
2019-02-10T21:18:03.037Z,4.20
2019-02-10T21:20:34.506Z,4.10
2019-02-10T21:23:19.395Z,5.83
2019-02-10T21:26:04.516Z,4.43
2019-02-10T21:28:37.617Z,4.17
2019-02-10T21:31:07.721Z,3.33
2019-02-10T21:33:43.603Z,4.70
2019-02-10T21:36:13.691Z,4.47
2019-02-10T21:38:43.920Z,6.30
2019-02-10T21:41:14.044Z,4.27
2019-02-10T21:43:44.136Z,4.27
2019-02-10T21:46:14.237Z,4.47
2019-02-10T21:48:44.369Z,3.90
2019-02-10T21:51:12.825Z,3.37
2019-02-10T21:53:41.285Z,3.53
2019-02-10T21:56:09.771Z,2.57
2019-02-10T21:58:38.223Z,4.50
2019-02-10T22:01:06.665Z,5.20
2019-02-10T22:03:35.160Z,4.50
2019-02-10T22:06:03.615Z,4.40
2019-02-10T22:08:32.074Z,4.77
2019-02-10T22:11:00.702Z,4.17
2019-02-10T22:13:29.160Z,4.33
2019-02-10T22:15:57.610Z,4.20
2019-02-10T22:18:26.223Z,4.70
2019-02-10T22:20:54.614Z,6.07
2019-02-10T22:23:23.050Z,5.00
2019-02-10T22:25:51.524Z,4.87
2019-02-10T22:28:19.967Z,4.77
2019-02-10T22:30:48.413Z,4.57
2019-02-10T22:33:16.910Z,5.00
2019-02-10T22:35:45.360Z,5.57
2019-02-10T22:38:13.816Z,5.67
2019-02-10T22:40:42.324Z,5.20
2019-02-10T22:43:10.763Z,4.87
2019-02-10T22:45:39.194Z,4.70
2019-02-10T22:48:07.675Z,3.00
2019-02-10T22:50:36.127Z,5.63
2019-02-10T22:53:04.568Z,3.27
2019-02-10T22:55:33.058Z,3.60
2019-02-10T22:58:01.491Z,4.83
2019-02-10T23:00:48.282Z,4.80
2019-02-10T23:03:16.774Z,5.30
2019-02-10T23:05:45.293Z,5.17
2019-02-10T23:08:13.794Z,5.93
2019-02-10T23:10:42.239Z,8.30
2019-02-10T23:13:11.699Z,6.20
2019-02-10T23:15:40.178Z,8.43
2019-02-10T23:18:08.635Z,6.60
2019-02-10T23:20:37.135Z,7.07
2019-02-10T23:23:05.636Z,5.33
2019-02-10T23:25:34.081Z,5.67
2019-02-10T23:28:02.540Z,5.20
2019-02-10T23:30:31.013Z,4.93
2019-02-10T23:32:59.463Z,3.80
2019-02-10T23:35:27.936Z,3.90
2019-02-10T23:37:56.424Z,3.37
2019-02-10T23:40:24.891Z,3.50
2019-02-10T23:42:53.327Z,2.90
2019-02-10T23:45:21.807Z,2.77
2019-02-10T23:47:50.264Z,2.10
2019-02-10T23:50:18.721Z,2.13
2019-02-10T23:52:47.225Z,1.97
2019-02-10T23:55:15.676Z,1.43
2019-02-10T23:57:44.133Z,1.53
